Time;durP1;ratioP1;P1;durP2;ratioP2;P2;SDS_P1;SDS_P2;PMS_P1;PMS_P2;Temp;Humidity;BMP_temperature;BMP_pressure;BME280_temperature;BME280_humidity;BME280_pressure;Samples;Min_cycle;Max_cycle;Signal;HPM_P1;HPM_P2
2023/03/04 00:00:09;;;;;;;4.10;1.17;;;8.90;62.30;;;;;;5023438;28;20033;-64
2023/03/04 00:02:34;;;;;;;2.10;1.30;;;8.90;61.70;;;;;;5008379;28;20057;-64
2023/03/04 00:05:02;;;;;;;5.10;0.75;;;9.00;61.80;;;;;;5010784;28;20072;-64
2023/03/04 00:07:28;;;;;;;3.15;1.02;;;8.90;61.70;;;;;;5031544;28;20030;-63
2023/03/04 00:09:53;;;;;;;1.92;1.05;;;8.90;61.80;;;;;;5031201;28;20056;-64
2023/03/04 00:12:19;;;;;;;1.90;0.93;;;8.90;61.70;;;;;;5029730;28;20034;-63
2023/03/04 00:14:45;;;;;;;4.63;1.13;;;8.90;61.80;;;;;;5030999;28;20484;-63
2023/03/04 00:17:10;;;;;;;3.05;1.10;;;8.90;61.90;;;;;;5027372;28;20033;-68
2023/03/04 00:19:36;;;;;;;2.83;1.05;;;8.90;61.90;;;;;;5025102;28;20112;-63
2023/03/04 00:22:03;;;;;;;2.05;0.90;;;8.90;61.90;;;;;;5022665;28;20065;-63
2023/03/04 00:24:29;;;;;;;1.75;0.85;;;8.80;62.00;;;;;;5004783;28;20128;-68
2023/03/04 00:26:54;;;;;;;3.55;1.27;;;8.80;62.10;;;;;;5015910;28;20560;-67
2023/03/04 00:29:21;;;;;;;1.27;0.73;;;8.80;62.10;;;;;;5030704;28;20029;-63
2023/03/04 00:31:46;;;;;;;1.48;1.05;;;8.80;62.20;;;;;;5006565;28;20125;-63
2023/03/04 00:34:12;;;;;;;3.28;1.50;;;8.80;62.30;;;;;;5027916;28;20112;-63
2023/03/04 00:36:38;;;;;;;3.33;1.02;;;8.80;62.40;;;;;;5027468;28;20032;-63
2023/03/04 00:39:04;;;;;;;2.10;1.08;;;8.80;62.50;;;;;;5008055;28;20048;-62
2023/03/04 00:41:30;;;;;;;3.72;1.27;;;8.80;62.50;;;;;;5019287;28;20049;-64
2023/03/04 00:43:55;;;;;;;2.38;1.30;;;8.80;62.60;;;;;;5029897;28;20044;-64
2023/03/04 00:46:21;;;;;;;1.48;1.15;;;8.80;62.50;;;;;;5028478;28;20026;-64
2023/03/04 00:48:46;;;;;;;5.78;1.17;;;8.80;62.80;;;;;;5014409;28;20036;-64
2023/03/04 00:51:12;;;;;;;4.03;1.38;;;8.90;62.60;;;;;;5025881;28;20021;-64
2023/03/04 00:53:38;;;;;;;11.60;1.33;;;8.90;62.60;;;;;;5005136;28;20022;-64
2023/03/04 00:56:04;;;;;;;3.75;1.15;;;8.80;62.60;;;;;;5026980;28;20022;-64
2023/03/04 00:58:29;;;;;;;2.42;0.93;;;8.80;62.80;;;;;;5006685;28;20041;-69
2023/03/04 01:00:55;;;;;;;6.85;0.82;;;8.80;62.90;;;;;;5028011;28;20048;-68
2023/03/04 01:03:21;;;;;;;9.57;1.65;;;8.80;62.90;;;;;;5029657;28;20082;-64
2023/03/04 01:05:46;;;;;;;4.28;1.10;;;8.80;62.90;;;;;;5025670;28;20030;-64
2023/03/04 01:08:12;;;;;;;3.47;1.35;;;8.80;62.90;;;;;;5012364;28;20033;-64
2023/03/04 01:10:37;;;;;;;3.15;1.85;;;8.80;62.90;;;;;;5026064;28;20061;-64
2023/03/04 01:13:03;;;;;;;3.53;1.17;;;8.80;62.90;;;;;;5029720;28;20017;-68
2023/03/04 01:15:29;;;;;;;9.98;1.50;;;8.80;62.90;;;;;;5010353;28;20108;-69
2023/03/04 01:17:55;;;;;;;4.13;1.20;;;8.80;62.90;;;;;;5031625;28;20114;-68
2023/03/04 01:20:21;;;;;;;7.03;0.85;;;8.80;63.00;;;;;;5009074;28;20034;-64
2023/03/04 01:22:46;;;;;;;4.10;0.90;;;8.80;63.60;;;;;;5038132;28;20037;-64
2023/03/04 01:25:12;;;;;;;3.47;1.02;;;8.80;63.10;;;;;;5009798;28;20060;-64
2023/03/04 01:27:38;;;;;;;8.25;1.02;;;8.80;63.20;;;;;;5025010;28;20061;-64
2023/03/04 01:30:04;;;;;;;3.72;1.05;;;8.80;63.10;;;;;;5024385;28;20489;-68
2023/03/04 01:32:30;;;;;;;10.43;0.70;;;8.80;63.20;;;;;;5020484;28;20022;-68
2023/03/04 01:34:55;;;;;;;3.22;1.05;;;8.80;63.30;;;;;;5021769;28;20071;-68
2023/03/04 01:37:21;;;;;;;2.20;0.90;;;8.80;63.40;;;;;;5018330;28;20030;-68
2023/03/04 01:39:47;;;;;;;2.83;1.63;;;8.70;63.50;;;;;;4999369;28;20099;-68
2023/03/04 01:42:25;;;;;;;4.07;0.93;;;8.70;63.50;;;;;;5020091;28;20600;-63
2023/03/04 01:44:51;;;;;;;2.63;1.55;;;8.80;63.60;;;;;;5019903;28;20512;-63
2023/03/04 01:47:18;;;;;;;0.95;0.73;;;8.70;63.70;;;;;;5006661;28;20037;-63
2023/03/04 01:49:47;;;;;;;2.75;0.80;;;8.70;63.80;;;;;;5029454;28;20021;-63
2023/03/04 01:52:13;;;;;;;0.68;0.40;;;8.70;63.80;;;;;;5027393;28;20487;-67
2023/03/04 01:54:39;;;;;;;3.38;1.13;;;8.70;64.00;;;;;;5020406;28;20107;-68
2023/03/04 01:57:20;;;;;;;5.45;1.38;;;8.70;64.00;;;;;;5005561;28;20026;-67
2023/03/04 01:59:46;;;;;;;3.53;0.88;;;8.70;64.20;;;;;;5020966;28;20420;-62
2023/03/04 02:02:13;;;;;;;0.90;0.73;;;8.60;64.30;;;;;;5028454;28;20021;-67
2023/03/04 02:04:41;;;;;;;3.03;1.25;;;8.60;64.50;;;;;;5016612;28;20068;-65
2023/03/04 02:07:07;;;;;;;2.55;1.42;;;8.60;64.50;;;;;;5006691;28;20499;-64
2023/03/04 02:09:34;;;;;;;1.73;1.08;;;8.60;64.50;;;;;;5026299;28;20405;-64
2023/03/04 02:12:00;;;;;;;3.25;0.65;;;8.60;64.40;;;;;;5036062;28;20010;-64
2023/03/04 02:14:26;;;;;;;3.55;1.15;;;8.60;64.40;;;;;;5026565;28;20033;-64
2023/03/04 02:16:52;;;;;;;1.92;1.08;;;8.70;64.40;;;;;;5037112;28;20443;-64
2023/03/04 02:19:36;;;;;;;2.22;0.80;;;8.70;64.30;;;;;;4998526;28;20034;-65
2023/03/04 02:22:02;;;;;;;1.13;0.50;;;8.70;64.30;;;;;;5027005;28;20033;-64
2023/03/04 02:24:33;;;;;;;3.17;1.38;;;8.60;64.30;;;;;;5029012;28;20393;-64
2023/03/04 02:26:59;;;;;;;3.05;1.27;;;8.70;64.30;;;;;;5028461;28;20022;-69
2023/03/04 02:29:25;;;;;;;3.95;0.68;;;8.60;64.30;;;;;;5027282;28;20025;-69
2023/03/04 02:31:52;;;;;;;5.25;1.00;;;8.60;64.30;;;;;;5026838;28;20112;-64
2023/03/04 02:34:19;;;;;;;2.33;0.85;;;8.60;64.20;;;;;;5029324;28;20558;-63
2023/03/04 02:36:46;;;;;;;1.50;0.77;;;8.60;64.20;;;;;;5018161;28;20025;-68
2023/03/04 02:39:21;;;;;;;4.13;1.30;;;8.60;64.10;;;;;;5039564;28;20025;-63
2023/03/04 02:41:48;;;;;;;3.65;0.70;;;8.60;64.10;;;;;;5020605;28;20041;-69
2023/03/04 02:44:23;;;;;;;2.17;0.90;;;8.60;64.00;;;;;;5041190;28;20037;-63
2023/03/04 02:46:50;;;;;;;1.13;0.90;;;8.50;63.90;;;;;;5034046;28;20021;-69
2023/03/04 02:49:16;;;;;;;2.95;1.00;;;8.50;64.00;;;;;;5017014;28;20064;-68
2023/03/04 02:51:42;;;;;;;5.25;0.70;;;8.50;64.10;;;;;;5024006;28;20051;-64
2023/03/04 02:54:19;;;;;;;2.35;1.15;;;8.50;64.10;;;;;;5038423;28;20151;-69
2023/03/04 02:56:47;;;;;;;0.65;0.60;;;8.60;64.00;;;;;;5036988;28;20033;-69
2023/03/04 02:59:12;;;;;;;2.88;1.38;;;8.50;64.00;;;;;;5038352;28;20045;-70
2023/03/04 03:01:38;;;;;;;1.13;0.98;;;8.50;64.00;;;;;;5027483;28;20366;-69
2023/03/04 03:04:04;;;;;;;4.47;1.25;;;8.50;63.90;;;;;;5018836;28;20083;-69
2023/03/04 03:06:29;;;;;;;4.22;1.33;;;8.50;63.70;;;;;;5010224;28;20036;-64
2023/03/04 03:08:55;;;;;;;4.32;0.88;;;8.50;63.70;;;;;;5033014;28;20140;-66
2023/03/04 03:11:21;;;;;;;5.97;1.10;;;8.50;63.70;;;;;;5029562;28;20469;-69
2023/03/04 03:13:46;;;;;;;0.98;0.73;;;8.50;63.70;;;;;;4998310;28;20134;-64
2023/03/04 03:16:12;;;;;;;0.88;0.55;;;8.50;63.70;;;;;;5036837;28;20429;-70
2023/03/04 03:18:38;;;;;;;4.63;1.05;;;8.50;63.60;;;;;;5013544;28;20030;-63
2023/03/04 03:21:03;;;;;;;3.40;0.85;;;8.50;63.60;;;;;;5002202;28;20021;-64
2023/03/04 03:23:29;;;;;;;2.92;1.08;;;8.60;63.60;;;;;;5013624;28;20029;-64
2023/03/04 03:25:55;;;;;;;2.92;0.93;;;8.60;63.60;;;;;;5030825;28;20021;-69
2023/03/04 03:28:20;;;;;;;3.97;0.77;;;8.60;63.50;;;;;;5013823;28;20026;-63
2023/03/04 03:30:46;;;;;;;0.88;0.60;;;8.60;63.50;;;;;;5007097;28;20026;-63
2023/03/04 03:33:12;;;;;;;1.40;0.63;;;8.60;63.40;;;;;;5027663;28;20014;-64
2023/03/04 03:35:37;;;;;;;5.25;0.95;;;8.60;63.40;;;;;;5035535;28;20094;-64
2023/03/04 03:38:03;;;;;;;4.53;1.05;;;8.60;63.40;;;;;;5036209;28;20045;-69
2023/03/04 03:40:29;;;;;;;5.20;1.00;;;8.60;63.50;;;;;;5030543;28;20029;-65
2023/03/04 03:42:54;;;;;;;1.52;0.60;;;8.60;63.60;;;;;;5021237;28;20033;-65
2023/03/04 03:45:20;;;;;;;3.30;0.93;;;8.50;64.10;;;;;;5008290;28;20029;-63
2023/03/04 03:47:46;;;;;;;4.95;1.20;;;8.50;63.80;;;;;;5027771;28;20099;-65
2023/03/04 03:50:11;;;;;;;3.65;1.75;;;8.50;63.90;;;;;;5024073;28;20033;-64
2023/03/04 03:52:37;;;;;;;0.30;0.28;;;8.60;63.90;;;;;;5010084;28;20021;-64
2023/03/04 03:55:03;;;;;;;1.05;0.52;;;8.60;63.90;;;;;;5028743;28;20029;-64
2023/03/04 03:57:29;;;;;;;4.00;0.80;;;8.60;64.00;;;;;;5018844;28;20485;-64
2023/03/04 03:59:55;;;;;;;0.80;0.45;;;8.50;64.10;;;;;;5018836;28;20091;-69
2023/03/04 04:02:21;;;;;;;1.90;0.40;;;8.50;64.20;;;;;;5010255;28;20035;-70
2023/03/04 04:04:48;;;;;;;4.78;1.33;;;8.50;64.30;;;;;;5020657;28;20052;-65
2023/03/04 04:07:13;;;;;;;5.28;0.90;;;8.40;64.30;;;;;;5027302;28;20159;-70
2023/03/04 04:09:39;;;;;;;1.75;0.65;;;8.50;64.30;;;;;;5024014;28;20045;-65
2023/03/04 04:12:05;;;;;;;4.68;1.25;;;8.50;64.40;;;;;;5013822;28;20091;-64
2023/03/04 04:14:31;;;;;;;1.73;0.80;;;8.50;64.40;;;;;;5031154;28;20079;-69
2023/03/04 04:16:57;;;;;;;1.55;0.88;;;8.50;64.40;;;;;;4994110;28;20045;-69
2023/03/04 04:19:23;;;;;;;1.55;0.80;;;8.50;64.40;;;;;;5028292;28;20155;-65
2023/03/04 04:21:49;;;;;;;0.60;0.60;;;8.50;64.40;;;;;;5036554;28;20064;-64
2023/03/04 04:24:14;;;;;;;1.00;0.60;;;8.50;64.40;;;;;;5031960;28;20519;-70
2023/03/04 04:26:41;;;;;;;4.30;0.93;;;8.50;64.40;;;;;;5011608;28;20029;-70
2023/03/04 04:29:07;;;;;;;7.72;0.82;;;8.50;64.50;;;;;;5033694;28;20029;-70
2023/03/04 04:31:33;;;;;;;0.80;0.55;;;8.50;64.50;;;;;;5015981;28;20079;-70
2023/03/04 04:33:59;;;;;;;5.30;0.90;;;8.40;64.40;;;;;;5006735;28;20034;-70
2023/03/04 04:36:25;;;;;;;0.65;0.40;;;8.40;64.40;;;;;;5031988;28;20037;-70
2023/03/04 04:38:51;;;;;;;1.45;0.73;;;8.40;64.40;;;;;;5031683;28;20393;-70
2023/03/04 04:41:23;;;;;;;2.78;0.50;;;8.40;64.50;;;;;;5034619;28;20539;-70
2023/03/04 04:43:49;;;;;;;1.00;0.70;;;8.40;64.50;;;;;;5030197;28;20110;-70
2023/03/04 04:46:15;;;;;;;0.77;0.68;;;8.40;64.50;;;;;;5019260;28;20037;-69
2023/03/04 04:48:41;;;;;;;3.42;0.60;;;8.40;64.50;;;;;;5034187;28;20032;-70
2023/03/04 04:51:07;;;;;;;3.95;0.50;;;8.40;64.60;;;;;;5009745;28;20033;-70
2023/03/04 04:53:33;;;;;;;5.78;1.17;;;8.40;64.80;;;;;;5033521;28;20108;-70
2023/03/04 04:55:58;;;;;;;2.33;0.77;;;8.30;64.90;;;;;;4998107;28;20380;-70
2023/03/04 04:58:25;;;;;;;5.80;0.90;;;8.30;65.30;;;;;;5011183;28;20050;-64
2023/03/04 05:00:50;;;;;;;3.50;1.05;;;8.30;65.50;;;;;;4997846;28;20030;-63
2023/03/04 05:03:16;;;;;;;1.30;0.75;;;8.30;65.90;;;;;;5039260;28;20506;-63
2023/03/04 05:05:42;;;;;;;2.67;0.85;;;8.30;65.90;;;;;;5032205;28;20033;-63
2023/03/04 05:08:08;;;;;;;2.00;1.23;;;8.30;66.30;;;;;;5019282;28;20049;-63
2023/03/04 05:10:33;;;;;;;3.30;1.13;;;8.30;66.40;;;;;;5026629;28;20065;-68
2023/03/04 05:12:59;;;;;;;2.58;0.73;;;8.30;66.90;;;;;;5031475;28;20091;-68
2023/03/04 05:15:25;;;;;;;3.83;1.17;;;8.20;67.30;;;;;;5027309;28;20072;-61
2023/03/04 05:17:50;;;;;;;2.40;0.88;;;8.20;67.50;;;;;;5029986;28;20033;-67
2023/03/04 05:20:16;;;;;;;0.65;0.43;;;8.20;67.60;;;;;;5001749;28;20037;-70
2023/03/04 05:22:42;;;;;;;3.22;0.52;;;8.20;67.60;;;;;;5032889;28;20457;-69
2023/03/04 05:25:10;;;;;;;1.40;0.90;;;8.20;67.90;;;;;;5010322;28;20492;-69
2023/03/04 05:27:36;;;;;;;0.63;0.38;;;8.20;67.80;;;;;;5014621;28;20025;-69
2023/03/04 05:30:02;;;;;;;3.30;0.85;;;8.20;67.70;;;;;;5020069;28;20092;-69
2023/03/04 05:32:27;;;;;;;1.45;0.52;;;8.20;67.80;;;;;;5018988;28;20041;-69
2023/03/04 05:34:53;;;;;;;1.30;0.82;;;8.20;67.90;;;;;;5025524;28;20141;-69
2023/03/04 05:37:19;;;;;;;1.88;1.08;;;8.20;67.80;;;;;;5028918;28;20091;-64
2023/03/04 05:39:44;;;;;;;1.67;0.60;;;8.20;67.90;;;;;;5024071;28;20337;-64
2023/03/04 05:42:10;;;;;;;2.85;0.50;;;8.20;67.90;;;;;;5025555;28;20427;-64
2023/03/04 05:44:36;;;;;;;3.60;0.77;;;8.20;68.10;;;;;;5027555;28;20081;-64
2023/03/04 05:47:01;;;;;;;1.15;0.55;;;8.20;68.10;;;;;;5006444;28;20025;-64
2023/03/04 05:49:27;;;;;;;1.73;1.17;;;8.20;68.10;;;;;;4985516;28;20068;-64
2023/03/04 05:51:53;;;;;;;5.05;0.73;;;8.20;68.10;;;;;;5019770;28;20025;-65
2023/03/04 05:54:18;;;;;;;15.02;1.05;;;8.20;68.00;;;;;;5028818;28;20464;-65
2023/03/04 05:56:44;;;;;;;2.38;0.93;;;8.20;68.00;;;;;;5024769;28;20034;-70
2023/03/04 05:59:10;;;;;;;1.52;0.77;;;8.20;68.10;;;;;;5018065;28;20100;-70
2023/03/04 06:01:35;;;;;;;7.80;0.95;;;8.20;68.20;;;;;;5010553;28;20420;-64
2023/03/04 06:04:01;;;;;;;4.00;0.93;;;8.20;68.20;;;;;;5006557;28;20124;-64
2023/03/04 06:06:27;;;;;;;1.13;0.30;;;8.20;68.20;;;;;;5005039;28;20030;-64
2023/03/04 06:08:53;;;;;;;1.05;0.63;;;8.20;68.10;;;;;;5026184;28;20404;-65
2023/03/04 06:11:18;;;;;;;1.08;0.63;;;8.20;68.00;;;;;;5023569;28;20033;-65
2023/03/04 06:13:44;;;;;;;1.77;0.90;;;8.20;68.00;;;;;;5031858;28;20029;-65
2023/03/04 06:16:09;;;;;;;1.95;0.73;;;8.20;68.20;;;;;;5028329;28;20536;-65
2023/03/04 06:18:35;;;;;;;1.80;0.80;;;8.20;68.20;;;;;;4998254;28;20041;-65
2023/03/04 06:21:02;;;;;;;2.22;1.08;;;8.20;68.20;;;;;;5009590;28;20342;-70
2023/03/04 06:23:29;;;;;;;2.00;1.02;;;8.20;68.10;;;;;;5034363;28;20037;-69
2023/03/04 06:25:56;;;;;;;0.98;0.40;;;8.20;68.10;;;;;;5033276;28;20381;-68
2023/03/04 06:28:22;;;;;;;1.02;0.57;;;8.20;68.10;;;;;;5029905;28;20407;-69
2023/03/04 06:30:50;;;;;;;2.13;0.90;;;8.20;68.10;;;;;;5031447;28;20293;-68
2023/03/04 06:33:16;;;;;;;2.47;0.43;;;8.20;68.20;;;;;;5028520;28;20021;-69
2023/03/04 06:35:41;;;;;;;1.75;0.88;;;8.20;68.10;;;;;;5009083;28;20416;-69
2023/03/04 06:38:07;;;;;;;0.40;0.40;;;8.20;68.20;;;;;;5038540;28;20445;-69
2023/03/04 06:40:33;;;;;;;4.53;0.50;;;8.20;68.20;;;;;;5023025;28;20038;-69
2023/03/04 06:42:59;;;;;;;0.95;0.35;;;8.20;68.30;;;;;;5006810;28;20484;-69
2023/03/04 06:45:24;;;;;;;0.47;0.47;;;8.20;68.50;;;;;;5037354;28;20034;-70
2023/03/04 06:47:50;;;;;;;3.25;1.02;;;8.20;68.50;;;;;;5009541;28;20095;-69
2023/03/04 06:50:16;;;;;;;4.53;1.02;;;8.20;68.70;;;;;;5032027;28;20050;-65
2023/03/04 06:52:41;;;;;;;1.35;0.60;;;8.20;68.70;;;;;;5019788;28;20461;-64
2023/03/04 06:55:08;;;;;;;2.33;0.80;;;8.20;68.80;;;;;;5016182;28;20033;-64
2023/03/04 06:57:33;;;;;;;1.65;0.82;;;8.20;68.80;;;;;;5035184;28;20033;-64
2023/03/04 06:59:59;;;;;;;3.63;0.75;;;8.30;68.80;;;;;;5039709;28;20108;-64
2023/03/04 07:02:25;;;;;;;1.38;0.60;;;8.30;68.70;;;;;;5040979;28;20536;-64
2023/03/04 07:04:51;;;;;;;2.65;0.55;;;8.30;68.80;;;;;;5039754;28;20032;-64
2023/03/04 07:07:16;;;;;;;1.33;0.52;;;8.30;68.80;;;;;;5034286;28;20537;-64
2023/03/04 07:09:42;;;;;;;1.58;0.28;;;8.30;68.80;;;;;;5029636;28;20041;-69
2023/03/04 07:12:08;;;;;;;3.75;0.60;;;8.30;68.70;;;;;;5006506;28;20112;-70
2023/03/04 07:14:33;;;;;;;6.43;0.68;;;8.30;68.70;;;;;;5026951;28;20034;-64
2023/03/04 07:16:59;;;;;;;3.92;1.13;;;8.30;68.80;;;;;;5031253;28;20036;-68
2023/03/04 07:19:25;;;;;;;4.82;0.85;;;8.30;68.80;;;;;;5036409;28;20103;-65
2023/03/04 07:21:50;;;;;;;4.78;0.95;;;8.20;68.90;;;;;;5012910;28;20053;-64
2023/03/04 07:24:16;;;;;;;0.40;0.40;;;8.20;68.90;;;;;;5030126;28;20037;-64
2023/03/04 07:26:42;;;;;;;1.00;0.52;;;8.30;69.00;;;;;;5035184;28;20029;-64
2023/03/04 07:29:08;;;;;;;2.15;1.08;;;8.30;69.10;;;;;;5008448;28;20021;-65
2023/03/04 07:31:34;;;;;;;3.35;1.15;;;8.30;69.10;;;;;;5026418;28;20481;-69
2023/03/04 07:34:05;;;;;;;0.73;0.60;;;8.30;69.20;;;;;;5036297;28;20473;-69
2023/03/04 07:36:33;;;;;;;3.55;0.85;;;8.30;69.20;;;;;;5031934;28;20022;-70
2023/03/04 07:38:58;;;;;;;0.70;0.52;;;8.20;69.50;;;;;;5031381;28;20488;-64
2023/03/04 07:41:27;;;;;;;2.80;1.08;;;8.20;69.70;;;;;;5040398;28;20025;-64
2023/03/04 07:43:52;;;;;;;2.08;0.60;;;8.20;69.60;;;;;;5015735;28;20116;-64
2023/03/04 07:46:18;;;;;;;2.33;0.88;;;8.20;69.60;;;;;;5024529;28;20109;-65
2023/03/04 07:48:44;;;;;;;1.92;0.70;;;8.30;69.80;;;;;;5013319;28;20025;-65
2023/03/04 07:51:19;;;;;;;5.85;1.05;;;8.40;69.70;;;;;;5027882;28;20033;-65
2023/03/04 07:53:47;;;;;;;7.25;1.17;;;8.50;69.60;;;;;;5024818;28;20038;-65
2023/03/04 07:56:18;;;;;;;2.92;0.75;;;8.50;69.60;;;;;;5028227;28;20022;-68
2023/03/04 07:58:44;;;;;;;3.78;0.63;;;8.60;69.60;;;;;;5007138;28;20502;-68
2023/03/04 08:01:12;;;;;;;1.92;0.75;;;8.60;69.50;;;;;;5002528;28;20157;-68
2023/03/04 08:03:38;;;;;;;1.60;0.38;;;8.60;69.50;;;;;;5024237;28;20025;-67
2023/03/04 08:06:06;;;;;;;2.85;1.15;;;8.60;69.30;;;;;;5009208;28;20021;-67
2023/03/04 08:08:32;;;;;;;0.60;0.60;;;8.70;69.40;;;;;;5028617;28;20045;-70
2023/03/04 08:10:58;;;;;;;2.30;0.77;;;8.70;69.50;;;;;;5031569;28;20032;-68
2023/03/04 08:13:23;;;;;;;2.72;0.73;;;8.70;69.60;;;;;;5008173;28;20029;-67
2023/03/04 08:15:49;;;;;;;4.65;0.98;;;8.70;69.60;;;;;;5023855;28;20037;-65
2023/03/04 08:18:14;;;;;;;3.38;0.50;;;8.70;69.70;;;;;;5025369;28;20030;-66
2023/03/04 08:20:44;;;;;;;2.10;1.02;;;8.80;69.80;;;;;;5026893;28;20037;-67
2023/03/04 08:23:10;;;;;;;8.05;1.20;;;8.80;69.80;;;;;;5026455;28;20024;-68
2023/03/04 08:25:42;;;;;;;1.30;0.50;;;8.80;69.90;;;;;;5029153;28;20037;-68
2023/03/04 08:28:09;;;;;;;0.93;0.65;;;8.90;69.80;;;;;;5031987;28;20028;-69
2023/03/04 08:30:35;;;;;;;0.70;0.40;;;8.90;69.90;;;;;;5024510;28;20030;-68
2023/03/04 08:33:02;;;;;;;2.25;0.65;;;8.90;70.00;;;;;;5029978;28;20017;-68
2023/03/04 08:35:28;;;;;;;2.15;1.15;;;8.90;70.30;;;;;;5025721;28;20037;-63
2023/03/04 08:37:54;;;;;;;2.47;0.93;;;9.00;70.50;;;;;;5021798;28;20068;-63
2023/03/04 08:40:20;;;;;;;1.65;0.55;;;9.00;70.60;;;;;;5027435;28;20025;-63
2023/03/04 08:42:45;;;;;;;1.50;0.63;;;9.00;70.70;;;;;;5029000;28;20033;-63
2023/03/04 08:45:11;;;;;;;0.68;0.60;;;9.00;70.80;;;;;;5012432;28;20018;-63
2023/03/04 08:47:37;;;;;;;0.47;0.28;;;9.00;70.80;;;;;;4999302;28;20060;-62
2023/03/04 08:50:05;;;;;;;1.52;0.60;;;9.10;70.60;;;;;;5006943;28;20026;-63
2023/03/04 08:52:30;;;;;;;1.88;0.55;;;9.10;70.80;;;;;;5034351;28;20025;-62
2023/03/04 08:54:56;;;;;;;2.67;0.95;;;9.10;70.90;;;;;;4991068;28;20512;-63
2023/03/04 08:57:22;;;;;;;4.95;0.80;;;9.00;71.10;;;;;;5026804;28;20034;-64
2023/03/04 08:59:48;;;;;;;1.48;0.60;;;8.90;72.20;;;;;;5011189;28;20065;-62
2023/03/04 09:02:14;;;;;;;0.50;0.50;;;8.90;71.80;;;;;;5016715;28;20076;-63
2023/03/04 09:04:40;;;;;;;3.80;0.50;;;8.90;72.00;;;;;;5015909;28;20040;-63
2023/03/04 09:07:06;;;;;;;4.03;0.80;;;9.00;72.50;;;;;;5025360;28;20034;-62
2023/03/04 09:09:32;;;;;;;1.88;0.70;;;9.00;72.60;;;;;;5005001;28;20060;-62
2023/03/04 09:11:57;;;;;;;1.50;0.68;;;9.00;72.90;;;;;;5032517;28;20022;-61
2023/03/04 09:14:23;;;;;;;6.57;0.47;;;9.00;73.00;;;;;;5027123;28;20069;-63
2023/03/04 09:16:48;;;;;;;0.52;0.28;;;9.00;72.90;;;;;;5033704;28;20030;-63
2023/03/04 09:19:14;;;;;;;1.00;0.70;;;9.00;73.20;;;;;;5008839;28;20045;-63
2023/03/04 09:21:40;;;;;;;5.32;1.05;;;9.00;74.00;;;;;;5011979;28;20026;-63
2023/03/04 09:24:06;;;;;;;1.23;0.73;;;9.00;74.30;;;;;;5006830;28;20067;-63
2023/03/04 09:26:31;;;;;;;3.63;1.08;;;9.00;74.70;;;;;;5023672;28;20033;-63
2023/03/04 09:29:00;;;;;;;1.58;0.50;;;9.00;74.90;;;;;;5030753;28;20104;-63
2023/03/04 09:31:27;;;;;;;0.60;0.50;;;9.00;75.00;;;;;;5030373;28;20036;-63
2023/03/04 09:33:54;;;;;;;2.88;1.10;;;9.10;75.20;;;;;;5031307;28;20032;-63
2023/03/04 09:36:20;;;;;;;1.50;0.80;;;9.20;74.90;;;;;;5032383;28;20025;-63
2023/03/04 09:38:46;;;;;;;0.82;0.60;;;9.30;74.60;;;;;;4995523;28;20036;-63
2023/03/04 09:41:17;;;;;;;2.25;0.82;;;9.30;74.80;;;;;;5031045;28;20469;-63
2023/03/04 09:43:45;;;;;;;0.47;0.40;;;9.30;75.00;;;;;;5036542;28;20030;-63
2023/03/04 09:46:15;;;;;;;2.05;0.70;;;9.30;75.10;;;;;;5033236;28;20081;-62
2023/03/04 09:48:47;;;;;;;0.60;0.47;;;9.30;75.90;;;;;;5031517;28;20028;-63
2023/03/04 09:51:41;;;;;;;0.45;0.40;;;9.40;75.90;;;;;;5009188;28;20029;-63
2023/03/04 09:54:45;;;;;;;2.47;0.93;;;9.40;75.80;;;;;;5019950;28;20040;-63
2023/03/04 09:57:23;;;;;;;0.55;0.50;;;9.40;76.10;;;;;;5027178;28;20666;-63
2023/03/04 09:59:58;;;;;;;0.70;0.70;;;9.40;75.90;;;;;;5037221;28;20529;-63
2023/03/04 10:02:34;;;;;;;1.55;0.60;;;9.30;75.90;;;;;;5028475;28;20029;-63
2023/03/04 10:05:05;;;;;;;1.17;0.30;;;9.30;76.10;;;;;;5024266;28;20109;-64
2023/03/04 10:07:39;;;;;;;0.35;0.35;;;9.40;75.80;;;;;;5006784;28;20044;-63
2023/03/04 10:10:34;;;;;;;0.50;0.50;;;9.60;75.50;;;;;;5018820;28;20057;-64
2023/03/04 10:13:01;;;;;;;0.70;0.35;;;9.80;74.90;;;;;;5006490;28;20040;-63
2023/03/04 10:15:45;;;;;;;0.38;0.38;;;9.90;74.80;;;;;;5029661;28;20022;-64
2023/03/04 10:18:22;;;;;;;0.50;0.40;;;10.10;74.50;;;;;;5009534;28;20116;-63
2023/03/04 10:21:25;;;;;;;0.30;0.30;;;10.30;73.60;;;;;;5023201;28;20036;-63
2023/03/04 10:23:53;;;;;;;0.50;0.32;;;10.20;73.40;;;;;;5027318;28;20029;-64
2023/03/04 10:26:20;;;;;;;0.50;0.43;;;10.10;73.70;;;;;;5021742;28;20060;-64
2023/03/04 10:28:46;;;;;;;0.47;0.28;;;10.00;73.60;;;;;;5022712;28;20118;-63
2023/03/04 10:31:26;;;;;;;0.47;0.22;;;9.80;74.00;;;;;;5024863;28;20026;-63
2023/03/04 10:33:51;;;;;;;0.50;0.50;;;9.70;74.50;;;;;;4995522;28;20771;-65
2023/03/04 10:36:23;;;;;;;1.58;0.73;;;9.70;75.10;;;;;;5016176;28;20037;-63
2023/03/04 10:38:53;;;;;;;0.40;0.40;;;9.60;75.20;;;;;;5025830;28;20029;-65
2023/03/04 10:41:21;;;;;;;1.02;0.57;;;9.60;75.50;;;;;;5026509;28;20064;-63
2023/03/04 10:44:03;;;;;;;0.35;0.30;;;9.60;75.80;;;;;;5023630;28;20033;-63
2023/03/04 10:46:30;;;;;;;2.03;0.70;;;9.60;75.80;;;;;;5027347;28;20037;-62
2023/03/04 10:48:56;;;;;;;3.50;0.70;;;9.60;76.20;;;;;;5027018;28;20056;-67
2023/03/04 10:51:27;;;;;;;0.50;0.50;;;9.70;76.20;;;;;;5016644;28;20033;-65
2023/03/04 10:54:16;;;;;;;2.60;0.55;;;9.60;76.40;;;;;;5026826;28;20032;-64
2023/03/04 10:56:57;;;;;;;1.27;0.43;;;9.60;76.60;;;;;;4995875;28;20038;-64
2023/03/04 10:59:52;;;;;;;3.42;0.70;;;9.50;76.60;;;;;;5030575;28;20500;-63
2023/03/04 11:02:23;;;;;;;0.68;0.43;;;9.60;76.80;;;;;;5006627;28;20045;-63
2023/03/04 11:04:52;;;;;;;0.63;0.40;;;9.60;76.80;;;;;;5031294;28;20079;-63
2023/03/04 11:07:19;;;;;;;0.60;0.57;;;9.70;76.70;;;;;;5035229;28;20540;-68
2023/03/04 11:09:45;;;;;;;2.75;0.60;;;9.70;76.90;;;;;;5031790;28;20041;-62
2023/03/04 11:12:13;;;;;;;1.30;0.60;;;9.70;77.20;;;;;;4991450;28;20396;-62
2023/03/04 11:15:00;;;;;;;0.52;0.30;;;9.70;77.40;;;;;;5026672;28;20044;-65
2023/03/04 11:17:52;;;;;;;0.30;0.30;;;9.70;77.40;;;;;;5027858;28;20041;-66
2023/03/04 11:20:29;;;;;;;0.30;0.20;;;9.80;77.60;;;;;;5020044;28;20030;-66
2023/03/04 11:22:58;;;;;;;0.20;0.20;;;9.90;77.40;;;;;;5025646;28;20104;-68
2023/03/04 11:25:32;;;;;;;0.22;0.20;;;9.90;77.30;;;;;;5019130;28;20060;-66
2023/03/04 11:28:08;;;;;;;1.65;0.63;;;10.00;77.10;;;;;;5019128;28;20393;-67
2023/03/04 11:30:42;;;;;;;0.93;0.30;;;10.20;76.90;;;;;;5019408;28;20018;-66
2023/03/04 11:33:26;;;;;;;0.30;0.30;;;10.30;76.70;;;;;;5022356;28;20312;-67
2023/03/04 11:36:01;;;;;;;0.28;0.28;;;10.50;76.90;;;;;;5011754;28;20080;-66
2023/03/04 11:38:42;;;;;;;0.20;0.20;;;11.10;76.00;;;;;;5018819;28;20029;-67
2023/03/04 11:41:34;;;;;;;0.10;0.10;;;11.50;73.90;;;;;;5023564;28;20021;-67
2023/03/04 11:44:01;;;;;;;0.45;0.32;;;11.40;72.50;;;;;;5001741;28;20034;-67
2023/03/04 11:46:45;;;;;;;0.13;0.13;;;11.30;72.70;;;;;;5016988;28;20377;-67
2023/03/04 11:49:23;;;;;;;0.20;0.20;;;11.10;72.40;;;;;;5006768;28;20046;-67
2023/03/04 11:52:00;;;;;;;0.47;0.10;;;10.90;72.40;;;;;;5023480;28;20047;-67
2023/03/04 11:55:03;;;;;;;0.50;0.20;;;10.70;72.70;;;;;;5019511;28;20071;-66
2023/03/04 11:58:03;;;;;;;0.20;0.20;;;10.60;73.10;;;;;;5014485;28;20038;-67
2023/03/04 12:00:47;;;;;;;0.35;0.35;;;10.50;73.50;;;;;;5022967;28;20499;-67
2023/03/04 12:03:21;;;;;;;0.68;0.40;;;10.50;73.90;;;;;;5019560;28;20033;-66
2023/03/04 12:06:10;;;;;;;1.85;0.20;;;10.40;74.20;;;;;;5017867;28;20461;-66
2023/03/04 12:08:41;;;;;;;0.10;0.10;;;10.40;74.50;;;;;;5020005;28;20035;-64
2023/03/04 12:11:28;;;;;;;0.50;0.47;;;10.40;74.80;;;;;;5017540;28;20451;-64
2023/03/04 12:14:14;;;;;;;0.40;0.40;;;10.40;74.90;;;;;;5007273;28;20568;-64
2023/03/04 12:16:59;;;;;;;0.25;0.25;;;10.60;75.40;;;;;;5025350;28;20468;-67
2023/03/04 12:19:46;;;;;;;1.80;0.40;;;10.90;75.30;;;;;;5024073;28;20032;-65
2023/03/04 12:22:36;;;;;;;0.20;0.20;;;11.30;74.80;;;;;;5028606;28;20542;-65
2023/03/04 12:25:17;;;;;;;0.10;0.10;;;11.60;73.90;;;;;;5026754;28;20025;-65
2023/03/04 12:27:57;;;;;;;0.52;0.20;;;11.90;73.20;;;;;;5022797;28;20036;-65
2023/03/04 12:30:54;;;;;;;3.75;0.60;;;11.90;72.30;;;;;;5017460;28;20473;-68
2023/03/04 12:33:38;;;;;;;0.50;0.30;;;11.70;71.80;;;;;;5003759;28;20128;-68
2023/03/04 12:36:22;;;;;;;0.13;0.13;;;11.50;71.40;;;;;;5004442;28;20028;-64
2023/03/04 12:39:09;;;;;;;0.15;0.15;;;11.30;71.70;;;;;;5007510;28;20037;-64
2023/03/04 12:41:47;;;;;;;0.45;0.17;;;11.10;72.10;;;;;;5024143;28;20022;-64
2023/03/04 12:44:19;;;;;;;0.20;0.20;;;10.90;72.40;;;;;;5020634;28;20478;-64
2023/03/04 12:47:23;;;;;;;0.57;0.17;;;10.80;72.80;;;;;;5024081;28;20029;-64
2023/03/04 12:50:24;;;;;;;0.60;0.30;;;10.70;73.00;;;;;;5023428;28;20026;-64
2023/03/04 12:53:05;;;;;;;0.32;0.32;;;10.50;73.10;;;;;;4969087;28;20438;-65
2023/03/04 12:55:41;;;;;;;3.00;0.75;;;10.40;73.20;;;;;;5026356;28;20496;-67
2023/03/04 12:58:18;;;;;;;0.52;0.52;;;10.30;73.20;;;;;;5015127;28;20034;-66
2023/03/04 13:01:14;;;;;;;1.88;1.02;;;10.20;72.50;;;;;;5021729;28;20094;-66
2023/03/04 13:03:43;;;;;;;3.85;0.45;;;10.20;72.40;;;;;;5009835;28;20029;-66
2023/03/04 13:06:50;;;;;;;1.05;0.57;;;10.20;72.60;;;;;;5005076;28;20121;-67